BEL3604 LFML-EBBR
Flight info
| Callsign | BEL3604 |
|---|---|
| Flight time | 1h 28m |
| Altitude | 28000 |
| Route | ETREK DCT LUXAN DCT LTP DCT SOPLO DCT OMASI DCT KINNI DCT GILIR DCT PENDU DCT IXILU DCT GIVOR DCT SORAL DCT IBERA N853 DIK Y37 BATTY |
| Aircraft | A320/M-SDE3FGHIRWY/LB1 |
Departure
| Time | 2026-05-05 18:28 |
|---|---|
| Airport | Marseille Provence Airport (LFML) |
Arrival
| Time | 2026-05-05 19:56 |
|---|---|
| Airport | Brussels Airport (EBBR) |
| Time | Latitude | Longitude | Altitude | Speed | Heading |
|---|---|---|---|---|---|
| 2026-05-05 18:03 | 43.43862 | 5.22308 | 50 ft | 0 kts | 73° |
| 2026-05-05 18:18 | 43.43861 | 5.22306 | 50 ft | 2 kts | 73° |
| 2026-05-05 18:18 | 43.43853 | 5.22272 | 47 ft | 4 kts | 68° |
| 2026-05-05 18:18 | 43.43842 | 5.22239 | 47 ft | 4 kts | 52° |
| 2026-05-05 18:19 | 43.43824 | 5.22218 | 46 ft | 4 kts | 2° |
| 2026-05-05 18:19 | 43.43816 | 5.22218 | 47 ft | 0 kts | 343° |
| 2026-05-05 18:21 | 43.43826 | 5.22214 | 46 ft | 7 kts | 343° |
| 2026-05-05 18:22 | 43.43856 | 5.22123 | 44 ft | 13 kts | 237° |
| 2026-05-05 18:22 | 43.43785 | 5.22028 | 46 ft | 15 kts | 242° |
| 2026-05-05 18:22 | 43.43831 | 5.21905 | 45 ft | 15 kts | 311° |
| 2026-05-05 18:22 | 43.43904 | 5.21810 | 43 ft | 15 kts | 313° |
| 2026-05-05 18:23 | 43.43960 | 5.21728 | 42 ft | 0 kts | 313° |
| 2026-05-05 18:23 | 43.43978 | 5.21679 | 41 ft | 19 kts | 279° |
| 2026-05-05 18:23 | 43.43927 | 5.21543 | 33 ft | 18 kts | 246° |
| 2026-05-05 18:23 | 43.43963 | 5.21419 | 28 ft | 14 kts | 320° |
| 2026-05-05 18:24 | 43.44035 | 5.21323 | 26 ft | 15 kts | 313° |
| 2026-05-05 18:24 | 43.44105 | 5.21221 | 25 ft | 15 kts | 313° |
| 2026-05-05 18:24 | 43.44176 | 5.21119 | 23 ft | 15 kts | 314° |
| 2026-05-05 18:24 | 43.44249 | 5.21014 | 20 ft | 15 kts | 310° |
| 2026-05-05 18:25 | 43.44302 | 5.20899 | 20 ft | 9 kts | 297° |
| 2026-05-05 18:25 | 43.44311 | 5.20847 | 20 ft | 8 kts | 271° |
| 2026-05-05 18:25 | 43.44295 | 5.20799 | 22 ft | 0 kts | 231° |
| 2026-05-05 18:26 | 43.44276 | 5.20771 | 23 ft | 12 kts | 224° |
| 2026-05-05 18:27 | 43.44235 | 5.20717 | 27 ft | 4 kts | 204° |
| 2026-05-05 18:27 | 43.44204 | 5.20745 | 29 ft | 6 kts | 134° |
| 2026-05-05 18:27 | 43.44175 | 5.20786 | 31 ft | 10 kts | 135° |
| 2026-05-05 18:27 | 43.43991 | 5.21049 | 32 ft | 75 kts | 134° |
| 2026-05-05 18:28 | 43.42728 | 5.22850 | 278 ft | 164 kts | 135° |
| 2026-05-05 18:28 | 43.41974 | 5.24005 | 1133 ft | 158 kts | 124° |
| 2026-05-05 18:28 | 43.41807 | 5.25500 | 1806 ft | 171 kts | 76° |
| 2026-05-05 18:29 | 43.42504 | 5.26833 | 2444 ft | 175 kts | 47° |
| 2026-05-05 18:29 | 43.43271 | 5.28111 | 3137 ft | 176 kts | 59° |
| 2026-05-05 18:29 | 43.43987 | 5.29589 | 3602 ft | 194 kts | 52° |
| 2026-05-05 18:29 | 43.45039 | 5.30920 | 3992 ft | 220 kts | 33° |
| 2026-05-05 18:30 | 43.46527 | 5.31690 | 4571 ft | 235 kts | 7° |
| 2026-05-05 18:30 | 43.48148 | 5.31613 | 5420 ft | 238 kts | 346° |
| 2026-05-05 18:30 | 43.49687 | 5.30704 | 6296 ft | 240 kts | 324° |
| 2026-05-05 18:30 | 43.51084 | 5.29426 | 7124 ft | 243 kts | 324° |
| 2026-05-05 18:31 | 43.52515 | 5.28169 | 8058 ft | 245 kts | 324° |
| 2026-05-05 18:31 | 43.53938 | 5.26938 | 8955 ft | 247 kts | 324° |
| 2026-05-05 18:31 | 43.55396 | 5.25685 | 9818 ft | 251 kts | 324° |
| 2026-05-05 18:31 | 43.56887 | 5.24397 | 10590 ft | 255 kts | 323° |
| 2026-05-05 18:32 | 43.58499 | 5.23316 | 11360 ft | 265 kts | 339° |
| 2026-05-05 18:32 | 43.60352 | 5.22537 | 11763 ft | 288 kts | 338° |
| 2026-05-05 18:32 | 43.61629 | 5.21970 | 12003 ft | 303 kts | 338° |
| 2026-05-05 18:32 | 43.64428 | 5.20699 | 12409 ft | 335 kts | 338° |
| 2026-05-05 18:33 | 43.66723 | 5.19650 | 12780 ft | 354 kts | 338° |
| 2026-05-05 18:33 | 43.69089 | 5.18579 | 13493 ft | 361 kts | 338° |
| 2026-05-05 18:33 | 43.71501 | 5.17496 | 14207 ft | 366 kts | 338° |
| 2026-05-05 18:33 | 43.73924 | 5.16387 | 14901 ft | 370 kts | 337° |
| 2026-05-05 18:34 | 43.75544 | 5.15629 | 15368 ft | 372 kts | 337° |
| 2026-05-05 18:34 | 43.78009 | 5.14460 | 16073 ft | 376 kts | 337° |
| 2026-05-05 18:34 | 43.80497 | 5.13270 | 16780 ft | 380 kts | 337° |
| 2026-05-05 18:34 | 43.83013 | 5.12063 | 17472 ft | 384 kts | 337° |
| 2026-05-05 18:35 | 43.85556 | 5.10844 | 18154 ft | 389 kts | 337° |
| 2026-05-05 18:35 | 43.88130 | 5.09665 | 18738 ft | 394 kts | 341° |
| 2026-05-05 18:35 | 43.90850 | 5.08934 | 19330 ft | 400 kts | 347° |
| 2026-05-05 18:35 | 43.93704 | 5.08291 | 19971 ft | 403 kts | 347° |
| 2026-05-05 18:36 | 43.96382 | 5.07687 | 20566 ft | 405 kts | 347° |
| 2026-05-05 18:36 | 43.99180 | 5.07052 | 21159 ft | 408 kts | 347° |
| 2026-05-05 18:36 | 44.02003 | 5.06408 | 21729 ft | 412 kts | 347° |
| 2026-05-05 18:36 | 44.04831 | 5.05759 | 22292 ft | 415 kts | 347° |
| 2026-05-05 18:37 | 44.07692 | 5.05101 | 22841 ft | 418 kts | 347° |
| 2026-05-05 18:37 | 44.10580 | 5.04435 | 23393 ft | 421 kts | 347° |
| 2026-05-05 18:37 | 44.13480 | 5.03765 | 23832 ft | 425 kts | 347° |
| 2026-05-05 18:37 | 44.16415 | 5.03086 | 24210 ft | 430 kts | 347° |
| 2026-05-05 18:38 | 44.19385 | 5.02400 | 24605 ft | 434 kts | 347° |
| 2026-05-05 18:38 | 44.22367 | 5.01714 | 25033 ft | 437 kts | 347° |
| 2026-05-05 18:38 | 44.25378 | 5.01023 | 25440 ft | 441 kts | 346° |
| 2026-05-05 18:38 | 44.28387 | 5.00331 | 25835 ft | 444 kts | 346° |
| 2026-05-05 18:39 | 44.31485 | 4.99617 | 26227 ft | 448 kts | 346° |
| 2026-05-05 18:39 | 44.34532 | 4.98912 | 26601 ft | 452 kts | 346° |
| 2026-05-05 18:39 | 44.37645 | 4.98189 | 26978 ft | 455 kts | 346° |
| 2026-05-05 18:39 | 44.40781 | 4.97461 | 27364 ft | 459 kts | 345° |
| 2026-05-05 18:40 | 44.43940 | 4.96728 | 27748 ft | 462 kts | 345° |
| 2026-05-05 18:40 | 44.47115 | 4.95992 | 27887 ft | 460 kts | 345° |
| 2026-05-05 18:40 | 44.50224 | 4.95277 | 27951 ft | 448 kts | 345° |
| 2026-05-05 18:40 | 44.53289 | 4.94571 | 27897 ft | 443 kts | 345° |
| 2026-05-05 18:41 | 44.56324 | 4.93863 | 27904 ft | 441 kts | 345° |
| 2026-05-05 18:41 | 44.59341 | 4.93149 | 27905 ft | 440 kts | 345° |
| 2026-05-05 18:41 | 44.62333 | 4.92441 | 27908 ft | 440 kts | 345° |
| 2026-05-05 18:41 | 44.65354 | 4.91730 | 27910 ft | 440 kts | 345° |
| 2026-05-05 18:42 | 44.68367 | 4.91024 | 27912 ft | 440 kts | 345° |
| 2026-05-05 18:42 | 44.71379 | 4.90288 | 27912 ft | 438 kts | 342° |
| 2026-05-05 18:42 | 44.74279 | 4.89090 | 27915 ft | 431 kts | 333° |
| 2026-05-05 18:42 | 44.77062 | 4.87524 | 27914 ft | 430 kts | 332° |
| 2026-05-05 18:43 | 44.79835 | 4.85957 | 27917 ft | 430 kts | 332° |
| 2026-05-05 18:43 | 44.82612 | 4.84386 | 27917 ft | 430 kts | 332° |
| 2026-05-05 18:43 | 44.85396 | 4.82809 | 27916 ft | 430 kts | 332° |
| 2026-05-05 18:43 | 44.88168 | 4.81242 | 27915 ft | 430 kts | 332° |
| 2026-05-05 18:44 | 44.90955 | 4.79670 | 27925 ft | 436 kts | 332° |
| 2026-05-05 18:44 | 44.93806 | 4.78055 | 27917 ft | 449 kts | 332° |
| 2026-05-05 18:44 | 44.96751 | 4.76385 | 27919 ft | 461 kts | 333° |
| 2026-05-05 18:44 | 44.99755 | 4.74682 | 27913 ft | 468 kts | 333° |
| 2026-05-05 18:45 | 45.02780 | 4.72969 | 27902 ft | 470 kts | 333° |
| 2026-05-05 18:45 | 45.05820 | 4.71245 | 27898 ft | 471 kts | 333° |
| 2026-05-05 18:45 | 45.08862 | 4.69518 | 27899 ft | 471 kts | 333° |
| 2026-05-05 18:45 | 45.11967 | 4.68168 | 27885 ft | 480 kts | 347° |
| 2026-05-05 18:46 | 45.15365 | 4.68129 | 27881 ft | 499 kts | 6° |
| 2026-05-05 18:46 | 45.18692 | 4.69630 | 27901 ft | 509 kts | 27° |
| 2026-05-05 18:46 | 45.21562 | 4.72575 | 27900 ft | 509 kts | 47° |
| 2026-05-05 18:46 | 45.23643 | 4.76579 | 27901 ft | 506 kts | 63° |
| 2026-05-05 18:47 | 45.25349 | 4.80952 | 27881 ft | 506 kts | 64° |
| 2026-05-05 18:47 | 45.27022 | 4.85357 | 27880 ft | 507 kts | 64° |
| 2026-05-05 18:47 | 45.28672 | 4.89779 | 27893 ft | 506 kts | 65° |
| 2026-05-05 18:47 | 45.30307 | 4.94192 | 27884 ft | 504 kts | 65° |
| 2026-05-05 18:48 | 45.31944 | 4.98599 | 27892 ft | 504 kts | 65° |
| 2026-05-05 18:48 | 45.33587 | 5.02991 | 27894 ft | 504 kts | 64° |
| 2026-05-05 18:48 | 45.35244 | 5.07395 | 27868 ft | 504 kts | 64° |
| 2026-05-05 18:48 | 45.36900 | 5.11785 | 27863 ft | 504 kts | 64° |
| 2026-05-05 18:49 | 45.38557 | 5.16174 | 27860 ft | 504 kts | 64° |
| 2026-05-05 18:49 | 45.40213 | 5.20571 | 27868 ft | 504 kts | 64° |
| 2026-05-05 18:49 | 45.41871 | 5.24982 | 27883 ft | 505 kts | 65° |
| 2026-05-05 18:49 | 45.43516 | 5.29384 | 27883 ft | 505 kts | 65° |
| 2026-05-05 18:50 | 45.45162 | 5.33809 | 27871 ft | 505 kts | 65° |
| 2026-05-05 18:50 | 45.46795 | 5.38220 | 27889 ft | 504 kts | 65° |
| 2026-05-05 18:50 | 45.48581 | 5.42537 | 27888 ft | 507 kts | 56° |
| 2026-05-05 18:50 | 45.50827 | 5.46336 | 27856 ft | 508 kts | 45° |
| 2026-05-05 18:51 | 45.53470 | 5.49760 | 27867 ft | 508 kts | 42° |
| 2026-05-05 18:51 | 45.56083 | 5.53072 | 27870 ft | 508 kts | 42° |
| 2026-05-05 18:51 | 45.58732 | 5.56433 | 27872 ft | 508 kts | 42° |
| 2026-05-05 18:51 | 45.61366 | 5.59790 | 27872 ft | 508 kts | 42° |
| 2026-05-05 18:52 | 45.64002 | 5.63161 | 27893 ft | 508 kts | 42° |
| 2026-05-05 18:52 | 45.66630 | 5.66528 | 27912 ft | 507 kts | 43° |
| 2026-05-05 18:52 | 45.69256 | 5.69898 | 27923 ft | 506 kts | 43° |
| 2026-05-05 18:52 | 45.71873 | 5.73265 | 27915 ft | 506 kts | 43° |
| 2026-05-05 18:53 | 45.74489 | 5.76633 | 27909 ft | 505 kts | 43° |
| 2026-05-05 18:53 | 45.77105 | 5.80002 | 27913 ft | 505 kts | 43° |
| 2026-05-05 18:53 | 45.79723 | 5.83373 | 27915 ft | 505 kts | 43° |
| 2026-05-05 18:53 | 45.82333 | 5.86732 | 27934 ft | 505 kts | 43° |
| 2026-05-05 18:54 | 45.84917 | 5.90057 | 27941 ft | 504 kts | 43° |
| 2026-05-05 18:54 | 45.87557 | 5.93460 | 27916 ft | 503 kts | 42° |
| 2026-05-05 18:54 | 45.90122 | 5.96773 | 27917 ft | 503 kts | 43° |
| 2026-05-05 18:54 | 45.92723 | 6.00139 | 27918 ft | 503 kts | 43° |
| 2026-05-05 18:55 | 45.95318 | 6.03498 | 27915 ft | 503 kts | 43° |
| 2026-05-05 18:55 | 45.97916 | 6.06868 | 27915 ft | 503 kts | 43° |
| 2026-05-05 18:55 | 46.00510 | 6.10244 | 27913 ft | 503 kts | 43° |
| 2026-05-05 18:55 | 46.03102 | 6.13620 | 27930 ft | 503 kts | 43° |
| 2026-05-05 18:56 | 46.05811 | 6.16811 | 27918 ft | 503 kts | 34° |
| 2026-05-05 18:56 | 46.08866 | 6.19233 | 27893 ft | 502 kts | 22° |
| 2026-05-05 18:56 | 46.12179 | 6.20759 | 27886 ft | 500 kts | 10° |
| 2026-05-05 18:56 | 46.15607 | 6.21353 | 27881 ft | 496 kts | 359° |
| 2026-05-05 18:57 | 46.19064 | 6.21452 | 27880 ft | 496 kts | 359° |
| 2026-05-05 18:57 | 46.22512 | 6.21550 | 27908 ft | 496 kts | 359° |
| 2026-05-05 18:57 | 46.25968 | 6.21645 | 27903 ft | 496 kts | 359° |
| 2026-05-05 18:57 | 46.29431 | 6.21739 | 27903 ft | 497 kts | 359° |
| 2026-05-05 18:58 | 46.32879 | 6.21835 | 27901 ft | 497 kts | 359° |
| 2026-05-05 18:58 | 46.36341 | 6.21932 | 27901 ft | 497 kts | 359° |
| 2026-05-05 18:58 | 46.39800 | 6.22033 | 27901 ft | 497 kts | 359° |
| 2026-05-05 18:58 | 46.43258 | 6.22135 | 27892 ft | 497 kts | 359° |
| 2026-05-05 18:59 | 46.46725 | 6.22233 | 27890 ft | 498 kts | 359° |
| 2026-05-05 18:59 | 46.50178 | 6.22330 | 27888 ft | 498 kts | 359° |
| 2026-05-05 18:59 | 46.53632 | 6.22426 | 27886 ft | 498 kts | 359° |
| 2026-05-05 18:59 | 46.57113 | 6.22524 | 27886 ft | 498 kts | 359° |
| 2026-05-05 19:00 | 46.60569 | 6.22622 | 27886 ft | 498 kts | 359° |
| 2026-05-05 19:00 | 46.64049 | 6.22721 | 27887 ft | 498 kts | 359° |
| 2026-05-05 19:00 | 46.67519 | 6.22818 | 27885 ft | 498 kts | 359° |
| 2026-05-05 19:00 | 46.70983 | 6.22910 | 27886 ft | 498 kts | 359° |
| 2026-05-05 19:01 | 46.74447 | 6.23003 | 27887 ft | 498 kts | 359° |
| 2026-05-05 19:01 | 46.77922 | 6.23104 | 27889 ft | 499 kts | 359° |
| 2026-05-05 19:01 | 46.81377 | 6.23206 | 27892 ft | 498 kts | 359° |
| 2026-05-05 19:01 | 46.84848 | 6.23308 | 27895 ft | 498 kts | 359° |
| 2026-05-05 19:02 | 46.88322 | 6.23407 | 27896 ft | 498 kts | 359° |
| 2026-05-05 19:02 | 46.91778 | 6.23504 | 27894 ft | 498 kts | 359° |
| 2026-05-05 19:02 | 46.95241 | 6.23601 | 27893 ft | 497 kts | 359° |
| 2026-05-05 19:02 | 46.98701 | 6.23698 | 27890 ft | 497 kts | 359° |
| 2026-05-05 19:03 | 47.00782 | 6.23757 | 27884 ft | 497 kts | 359° |
| 2026-05-05 19:03 | 47.05140 | 6.23185 | 27872 ft | 492 kts | 347° |
| 2026-05-05 19:03 | 47.08511 | 6.22267 | 27881 ft | 492 kts | 347° |
| 2026-05-05 19:03 | 47.11876 | 6.21337 | 27883 ft | 492 kts | 347° |
| 2026-05-05 19:04 | 47.15246 | 6.20403 | 27879 ft | 492 kts | 347° |
| 2026-05-05 19:04 | 47.18604 | 6.19476 | 27898 ft | 492 kts | 347° |
| 2026-05-05 19:04 | 47.21977 | 6.18549 | 27886 ft | 492 kts | 347° |
| 2026-05-05 19:04 | 47.25337 | 6.17628 | 27880 ft | 492 kts | 348° |
| 2026-05-05 19:05 | 47.28702 | 6.16707 | 27878 ft | 491 kts | 348° |
| 2026-05-05 19:05 | 47.32063 | 6.15789 | 27875 ft | 491 kts | 348° |
| 2026-05-05 19:05 | 47.35420 | 6.14870 | 27874 ft | 491 kts | 348° |
| 2026-05-05 19:05 | 47.38773 | 6.13948 | 27883 ft | 491 kts | 348° |
| 2026-05-05 19:06 | 47.42136 | 6.13019 | 27880 ft | 490 kts | 347° |
| 2026-05-05 19:06 | 47.45479 | 6.12093 | 27873 ft | 490 kts | 348° |
| 2026-05-05 19:06 | 47.48835 | 6.11161 | 27870 ft | 490 kts | 348° |
| 2026-05-05 19:06 | 47.52183 | 6.10233 | 27861 ft | 490 kts | 348° |
| 2026-05-05 19:07 | 47.55606 | 6.09283 | 27861 ft | 489 kts | 348° |
| 2026-05-05 19:07 | 47.58882 | 6.08370 | 27861 ft | 489 kts | 348° |
| 2026-05-05 19:07 | 47.62186 | 6.07447 | 27864 ft | 489 kts | 348° |
| 2026-05-05 19:07 | 47.65528 | 6.06512 | 27857 ft | 489 kts | 348° |
| 2026-05-05 19:08 | 47.68912 | 6.05569 | 27864 ft | 488 kts | 348° |
| 2026-05-05 19:08 | 47.72225 | 6.04839 | 27860 ft | 489 kts | 355° |
| 2026-05-05 19:08 | 47.75624 | 6.04953 | 27864 ft | 489 kts | 7° |
| 2026-05-05 19:08 | 47.78960 | 6.05959 | 27868 ft | 489 kts | 14° |
| 2026-05-05 19:09 | 47.82252 | 6.07210 | 27858 ft | 489 kts | 14° |
| 2026-05-05 19:09 | 47.85551 | 6.08464 | 27857 ft | 489 kts | 14° |
| 2026-05-05 19:09 | 47.88844 | 6.09712 | 27874 ft | 489 kts | 14° |
| 2026-05-05 19:09 | 47.92138 | 6.10955 | 27873 ft | 488 kts | 14° |
| 2026-05-05 19:10 | 47.95428 | 6.12195 | 27871 ft | 488 kts | 14° |
| 2026-05-05 19:10 | 47.98718 | 6.13433 | 27864 ft | 488 kts | 14° |
| 2026-05-05 19:10 | 48.02009 | 6.14671 | 27856 ft | 487 kts | 14° |
| 2026-05-05 19:10 | 48.05299 | 6.15914 | 27862 ft | 487 kts | 14° |
| 2026-05-05 19:11 | 48.08588 | 6.17160 | 27860 ft | 487 kts | 14° |
| 2026-05-05 19:11 | 48.11863 | 6.18407 | 27861 ft | 486 kts | 15° |
| 2026-05-05 19:11 | 48.15149 | 6.19660 | 27859 ft | 486 kts | 15° |
| 2026-05-05 19:11 | 48.18416 | 6.20904 | 27854 ft | 485 kts | 14° |
| 2026-05-05 19:12 | 48.21685 | 6.22145 | 27851 ft | 485 kts | 14° |
| 2026-05-05 19:12 | 48.24958 | 6.23387 | 27837 ft | 485 kts | 14° |
| 2026-05-05 19:12 | 48.28224 | 6.24628 | 27846 ft | 484 kts | 15° |
| 2026-05-05 19:12 | 48.31443 | 6.25858 | 27852 ft | 484 kts | 15° |
| 2026-05-05 19:13 | 48.34714 | 6.27116 | 27855 ft | 483 kts | 15° |
| 2026-05-05 19:13 | 48.37964 | 6.28371 | 27852 ft | 482 kts | 15° |
| 2026-05-05 19:13 | 48.41210 | 6.29626 | 27853 ft | 482 kts | 15° |
| 2026-05-05 19:13 | 48.44454 | 6.30878 | 27849 ft | 482 kts | 15° |
| 2026-05-05 19:14 | 48.47701 | 6.32127 | 27850 ft | 481 kts | 15° |
| 2026-05-05 19:14 | 48.50956 | 6.33378 | 27841 ft | 481 kts | 15° |
| 2026-05-05 19:14 | 48.54194 | 6.34623 | 27840 ft | 481 kts | 15° |
| 2026-05-05 19:14 | 48.57433 | 6.35874 | 27831 ft | 480 kts | 15° |
| 2026-05-05 19:15 | 48.60667 | 6.37129 | 27821 ft | 480 kts | 15° |
| 2026-05-05 19:15 | 48.63907 | 6.38389 | 27824 ft | 480 kts | 15° |
| 2026-05-05 19:15 | 48.67199 | 6.39288 | 27822 ft | 481 kts | 6° |
| 2026-05-05 19:15 | 48.70540 | 6.39637 | 27814 ft | 481 kts | 5° |
| 2026-05-05 19:16 | 48.73869 | 6.39969 | 27822 ft | 481 kts | 5° |
| 2026-05-05 19:16 | 48.77206 | 6.40300 | 27828 ft | 481 kts | 5° |
| 2026-05-05 19:16 | 48.80561 | 6.40638 | 27828 ft | 481 kts | 5° |
| 2026-05-05 19:16 | 48.83896 | 6.40977 | 27828 ft | 481 kts | 5° |
| 2026-05-05 19:17 | 48.87237 | 6.41314 | 27821 ft | 481 kts | 5° |
| 2026-05-05 19:17 | 48.90590 | 6.41651 | 27813 ft | 482 kts | 5° |
| 2026-05-05 19:17 | 48.93931 | 6.41986 | 27821 ft | 481 kts | 5° |
| 2026-05-05 19:17 | 48.97268 | 6.42324 | 27836 ft | 481 kts | 5° |
| 2026-05-05 19:18 | 49.00614 | 6.42666 | 27836 ft | 480 kts | 5° |
| 2026-05-05 19:18 | 49.03942 | 6.43009 | 27836 ft | 480 kts | 5° |
| 2026-05-05 19:18 | 49.07233 | 6.43348 | 27833 ft | 480 kts | 5° |
| 2026-05-05 19:18 | 49.10609 | 6.43490 | 27830 ft | 481 kts | 358° |
| 2026-05-05 19:19 | 49.12816 | 6.43100 | 27819 ft | 482 kts | 350° |
| 2026-05-05 19:19 | 49.17120 | 6.41443 | 27825 ft | 482 kts | 345° |
| 2026-05-05 19:19 | 49.19303 | 6.40543 | 27825 ft | 482 kts | 345° |
| 2026-05-05 19:19 | 49.22537 | 6.39209 | 27825 ft | 482 kts | 345° |
| 2026-05-05 19:20 | 49.25781 | 6.37869 | 27824 ft | 481 kts | 345° |
| 2026-05-05 19:20 | 49.30058 | 6.36105 | 27818 ft | 481 kts | 346° |
| 2026-05-05 19:20 | 49.32246 | 6.35204 | 27815 ft | 481 kts | 346° |
| 2026-05-05 19:20 | 49.35482 | 6.33867 | 27802 ft | 481 kts | 345° |
| 2026-05-05 19:21 | 49.38715 | 6.32532 | 27801 ft | 481 kts | 345° |
| 2026-05-05 19:21 | 49.41940 | 6.31196 | 27803 ft | 481 kts | 345° |
| 2026-05-05 19:21 | 49.45178 | 6.29854 | 27803 ft | 481 kts | 345° |
| 2026-05-05 19:21 | 49.48407 | 6.28511 | 27800 ft | 481 kts | 345° |
| 2026-05-05 19:22 | 49.51625 | 6.27175 | 27814 ft | 481 kts | 346° |
| 2026-05-05 19:22 | 49.54865 | 6.25842 | 27813 ft | 480 kts | 346° |
| 2026-05-05 19:22 | 49.58087 | 6.24525 | 27798 ft | 480 kts | 346° |
| 2026-05-05 19:22 | 49.61310 | 6.23209 | 27801 ft | 479 kts | 346° |
| 2026-05-05 19:23 | 49.64542 | 6.21889 | 27803 ft | 479 kts | 346° |
| 2026-05-05 19:23 | 49.67764 | 6.20570 | 27803 ft | 479 kts | 346° |
| 2026-05-05 19:23 | 49.70974 | 6.19256 | 27802 ft | 478 kts | 346° |
| 2026-05-05 19:23 | 49.74198 | 6.17928 | 27801 ft | 478 kts | 346° |
| 2026-05-05 19:24 | 49.77410 | 6.16597 | 27803 ft | 478 kts | 346° |
| 2026-05-05 19:24 | 49.80628 | 6.15261 | 27802 ft | 478 kts | 346° |
| 2026-05-05 19:24 | 49.83841 | 6.13927 | 27801 ft | 478 kts | 346° |
| 2026-05-05 19:24 | 49.87061 | 6.12601 | 27804 ft | 478 kts | 347° |
| 2026-05-05 19:25 | 49.90275 | 6.11370 | 27806 ft | 478 kts | 348° |
| 2026-05-05 19:25 | 49.93534 | 6.10202 | 27717 ft | 478 kts | 348° |
| 2026-05-05 19:25 | 49.96769 | 6.09042 | 27766 ft | 478 kts | 348° |
| 2026-05-05 19:25 | 49.99973 | 6.07901 | 27828 ft | 479 kts | 348° |
| 2026-05-05 19:26 | 50.03225 | 6.06807 | 27823 ft | 478 kts | 349° |
| 2026-05-05 19:26 | 50.06452 | 6.05748 | 27664 ft | 479 kts | 349° |
| 2026-05-05 19:26 | 50.09703 | 6.04671 | 27385 ft | 466 kts | 349° |
| 2026-05-05 19:26 | 50.12842 | 6.03596 | 27056 ft | 460 kts | 348° |
| 2026-05-05 19:27 | 50.15950 | 6.02497 | 26660 ft | 456 kts | 348° |
| 2026-05-05 19:27 | 50.19029 | 6.01393 | 26278 ft | 453 kts | 348° |
| 2026-05-05 19:27 | 50.22051 | 6.00304 | 25909 ft | 450 kts | 348° |
| 2026-05-05 19:27 | 50.25093 | 5.99208 | 25539 ft | 447 kts | 347° |
| 2026-05-05 19:28 | 50.28130 | 5.98115 | 25159 ft | 445 kts | 347° |
| 2026-05-05 19:28 | 50.31120 | 5.97042 | 24800 ft | 441 kts | 347° |
| 2026-05-05 19:28 | 50.34088 | 5.95981 | 24412 ft | 432 kts | 347° |
| 2026-05-05 19:28 | 50.36995 | 5.94948 | 23941 ft | 424 kts | 347° |
| 2026-05-05 19:29 | 50.39842 | 5.93933 | 23474 ft | 415 kts | 347° |
| 2026-05-05 19:29 | 50.42612 | 5.92944 | 22935 ft | 401 kts | 347° |
| 2026-05-05 19:29 | 50.45286 | 5.91985 | 22410 ft | 389 kts | 347° |
| 2026-05-05 19:29 | 50.47904 | 5.91041 | 21882 ft | 385 kts | 347° |
| 2026-05-05 19:30 | 50.50510 | 5.90099 | 21350 ft | 382 kts | 347° |
| 2026-05-05 19:30 | 50.53090 | 5.89165 | 20833 ft | 380 kts | 347° |
| 2026-05-05 19:30 | 50.55650 | 5.88240 | 20329 ft | 377 kts | 347° |
| 2026-05-05 19:30 | 50.58202 | 5.87314 | 19832 ft | 372 kts | 346° |
| 2026-05-05 19:31 | 50.60636 | 5.86048 | 19348 ft | 364 kts | 335° |
| 2026-05-05 19:31 | 50.62841 | 5.84200 | 18865 ft | 355 kts | 326° |
| 2026-05-05 19:31 | 50.64779 | 5.81866 | 18394 ft | 347 kts | 316° |
| 2026-05-05 19:31 | 50.66412 | 5.79140 | 17891 ft | 339 kts | 307° |
| 2026-05-05 19:32 | 50.67725 | 5.76103 | 17369 ft | 332 kts | 298° |
| 2026-05-05 19:32 | 50.68778 | 5.72893 | 16844 ft | 327 kts | 295° |
| 2026-05-05 19:32 | 50.69798 | 5.69715 | 16326 ft | 323 kts | 295° |
| 2026-05-05 19:32 | 50.70814 | 5.66559 | 15814 ft | 320 kts | 295° |
| 2026-05-05 19:33 | 50.71819 | 5.63434 | 15309 ft | 319 kts | 295° |
| 2026-05-05 19:33 | 50.72825 | 5.60296 | 14832 ft | 322 kts | 295° |
| 2026-05-05 19:33 | 50.73844 | 5.57113 | 14329 ft | 325 kts | 295° |
| 2026-05-05 19:33 | 50.74852 | 5.53963 | 13861 ft | 321 kts | 296° |
| 2026-05-05 19:34 | 50.75846 | 5.50846 | 13345 ft | 313 kts | 296° |
| 2026-05-05 19:34 | 50.76810 | 5.47815 | 12817 ft | 305 kts | 296° |
| 2026-05-05 19:34 | 50.77750 | 5.44860 | 12294 ft | 296 kts | 296° |
| 2026-05-05 19:35 | 50.79551 | 5.39188 | 11295 ft | 283 kts | 296° |
| 2026-05-05 19:35 | 50.80421 | 5.36442 | 10779 ft | 277 kts | 296° |
| 2026-05-05 19:35 | 50.81274 | 5.33751 | 10291 ft | 271 kts | 297° |
| 2026-05-05 19:35 | 50.82112 | 5.31102 | 9799 ft | 266 kts | 297° |
| 2026-05-05 19:36 | 50.82924 | 5.28534 | 9296 ft | 261 kts | 297° |
| 2026-05-05 19:36 | 50.83723 | 5.26001 | 8771 ft | 256 kts | 297° |
| 2026-05-05 19:36 | 50.84514 | 5.23487 | 8249 ft | 252 kts | 297° |
| 2026-05-05 19:36 | 50.85286 | 5.21027 | 7905 ft | 245 kts | 297° |
| 2026-05-05 19:37 | 50.86049 | 5.18595 | 7866 ft | 248 kts | 297° |
| 2026-05-05 19:37 | 50.86818 | 5.16150 | 7871 ft | 248 kts | 298° |
| 2026-05-05 19:37 | 50.87455 | 5.13603 | 7872 ft | 251 kts | 287° |
| 2026-05-05 19:37 | 50.87788 | 5.10883 | 7874 ft | 253 kts | 276° |
| 2026-05-05 19:38 | 50.87910 | 5.08103 | 7875 ft | 252 kts | 275° |
| 2026-05-05 19:38 | 50.88030 | 5.05329 | 7879 ft | 252 kts | 275° |
| 2026-05-05 19:38 | 50.88154 | 5.02560 | 7879 ft | 253 kts | 276° |
| 2026-05-05 19:38 | 50.88279 | 4.99784 | 7879 ft | 253 kts | 276° |
| 2026-05-05 19:39 | 50.88403 | 4.97014 | 7879 ft | 253 kts | 275° |
| 2026-05-05 19:39 | 50.88528 | 4.94234 | 7881 ft | 252 kts | 275° |
| 2026-05-05 19:39 | 50.88651 | 4.91469 | 7878 ft | 252 kts | 275° |
| 2026-05-05 19:39 | 50.88770 | 4.88752 | 7885 ft | 252 kts | 275° |
| 2026-05-05 19:40 | 50.88891 | 4.85958 | 7887 ft | 252 kts | 275° |
| 2026-05-05 19:40 | 50.89009 | 4.83180 | 7885 ft | 253 kts | 275° |
| 2026-05-05 19:40 | 50.89127 | 4.80402 | 7889 ft | 253 kts | 275° |
| 2026-05-05 19:40 | 50.89242 | 4.77687 | 7887 ft | 253 kts | 275° |
| 2026-05-05 19:41 | 50.89361 | 4.74888 | 7887 ft | 253 kts | 275° |
| 2026-05-05 19:41 | 50.89479 | 4.72122 | 7886 ft | 253 kts | 275° |
| 2026-05-05 19:41 | 50.89597 | 4.69341 | 7818 ft | 252 kts | 275° |
| 2026-05-05 19:41 | 50.89713 | 4.66582 | 7463 ft | 251 kts | 276° |
| 2026-05-05 19:42 | 50.89827 | 4.63815 | 7121 ft | 250 kts | 275° |
| 2026-05-05 19:42 | 50.89938 | 4.61091 | 6920 ft | 248 kts | 275° |
| 2026-05-05 19:42 | 50.90050 | 4.58301 | 6880 ft | 249 kts | 276° |
| 2026-05-05 19:42 | 50.90157 | 4.55616 | 6895 ft | 250 kts | 276° |
| 2026-05-05 19:43 | 50.90262 | 4.52872 | 6896 ft | 249 kts | 274° |
| 2026-05-05 19:43 | 50.90315 | 4.50123 | 6891 ft | 248 kts | 272° |
| 2026-05-05 19:43 | 50.90340 | 4.47395 | 6897 ft | 249 kts | 272° |
| 2026-05-05 19:43 | 50.90358 | 4.44644 | 6898 ft | 251 kts | 272° |
| 2026-05-05 19:44 | 50.90378 | 4.41880 | 6896 ft | 250 kts | 272° |
| 2026-05-05 19:44 | 50.90398 | 4.39132 | 6886 ft | 250 kts | 273° |
| 2026-05-05 19:44 | 50.90420 | 4.36369 | 6888 ft | 251 kts | 272° |
| 2026-05-05 19:44 | 50.90442 | 4.33613 | 6894 ft | 250 kts | 273° |
| 2026-05-05 19:45 | 50.90465 | 4.30860 | 6888 ft | 250 kts | 272° |
| 2026-05-05 19:45 | 50.90489 | 4.28101 | 6894 ft | 250 kts | 272° |
| 2026-05-05 19:45 | 50.90513 | 4.25335 | 6896 ft | 251 kts | 272° |
| 2026-05-05 19:45 | 50.90536 | 4.22589 | 6883 ft | 249 kts | 272° |
| 2026-05-05 19:46 | 50.90260 | 4.19902 | 6886 ft | 249 kts | 247° |
| 2026-05-05 19:46 | 50.89250 | 4.17673 | 6813 ft | 253 kts | 219° |
| 2026-05-05 19:46 | 50.87739 | 4.16436 | 6615 ft | 245 kts | 191° |
| 2026-05-05 19:46 | 50.86094 | 4.16398 | 6419 ft | 233 kts | 165° |
| 2026-05-05 19:47 | 50.84535 | 4.16951 | 6223 ft | 228 kts | 164° |
| 2026-05-05 19:47 | 50.82986 | 4.17493 | 6010 ft | 226 kts | 164° |
| 2026-05-05 19:47 | 50.81453 | 4.18024 | 5764 ft | 226 kts | 165° |
| 2026-05-05 19:47 | 50.79915 | 4.18556 | 5447 ft | 227 kts | 164° |
| 2026-05-05 19:48 | 50.78371 | 4.19090 | 5146 ft | 227 kts | 164° |
| 2026-05-05 19:48 | 50.76831 | 4.19619 | 4845 ft | 227 kts | 165° |
| 2026-05-05 19:48 | 50.75290 | 4.20147 | 4538 ft | 227 kts | 165° |
| 2026-05-05 19:48 | 50.73753 | 4.20673 | 4251 ft | 225 kts | 165° |
| 2026-05-05 19:49 | 50.72234 | 4.21193 | 4078 ft | 221 kts | 163° |
| 2026-05-05 19:49 | 50.71224 | 4.21576 | 4000 ft | 220 kts | 156° |
| 2026-05-05 19:49 | 50.69688 | 4.23406 | 3931 ft | 206 kts | 118° |
| 2026-05-05 19:49 | 50.69197 | 4.25457 | 3924 ft | 198 kts | 92° |
| 2026-05-05 19:50 | 50.69271 | 4.27592 | 3930 ft | 196 kts | 79° |
| 2026-05-05 19:50 | 50.69473 | 4.29718 | 3927 ft | 194 kts | 74° |
| 2026-05-05 19:50 | 50.69771 | 4.31791 | 3929 ft | 194 kts | 75° |
| 2026-05-05 19:50 | 50.70060 | 4.33873 | 3930 ft | 195 kts | 75° |
| 2026-05-05 19:51 | 50.70350 | 4.35981 | 3931 ft | 196 kts | 75° |
| 2026-05-05 19:51 | 50.70656 | 4.38011 | 3929 ft | 195 kts | 67° |
| 2026-05-05 19:51 | 50.71424 | 4.39697 | 3898 ft | 193 kts | 45° |
| 2026-05-05 19:51 | 50.72364 | 4.41192 | 3738 ft | 189 kts | 45° |
| 2026-05-05 19:52 | 50.73316 | 4.42577 | 3506 ft | 188 kts | 34° |
| 2026-05-05 19:52 | 50.74538 | 4.43394 | 3170 ft | 193 kts | 17° |
| 2026-05-05 19:52 | 50.75811 | 4.43907 | 2885 ft | 185 kts | 17° |
| 2026-05-05 19:52 | 50.76996 | 4.44384 | 2660 ft | 172 kts | 17° |
| 2026-05-05 19:53 | 50.78108 | 4.44834 | 2427 ft | 161 kts | 17° |
| 2026-05-05 19:53 | 50.79178 | 4.45269 | 2204 ft | 156 kts | 17° |
| 2026-05-05 19:53 | 50.80190 | 4.45680 | 2018 ft | 145 kts | 17° |
| 2026-05-05 19:53 | 50.81122 | 4.46056 | 2014 ft | 134 kts | 16° |
| 2026-05-05 19:54 | 50.82020 | 4.46422 | 1711 ft | 136 kts | 16° |
| 2026-05-05 19:54 | 50.82926 | 4.46792 | 1405 ft | 129 kts | 16° |
| 2026-05-05 19:54 | 50.83783 | 4.47141 | 1245 ft | 126 kts | 16° |
| 2026-05-05 19:54 | 50.84634 | 4.47488 | 1069 ft | 126 kts | 15° |
| 2026-05-05 19:55 | 50.85489 | 4.47836 | 895 ft | 128 kts | 15° |
| 2026-05-05 19:55 | 50.86361 | 4.48189 | 704 ft | 129 kts | 14° |
| 2026-05-05 19:55 | 50.87234 | 4.48520 | 542 ft | 130 kts | 14° |
| 2026-05-05 19:55 | 50.88118 | 4.48883 | 379 ft | 131 kts | 15° |
| 2026-05-05 19:56 | 50.88973 | 4.49241 | 225 ft | 130 kts | 14° |
| 2026-05-05 19:56 | 50.89732 | 4.49550 | 149 ft | 97 kts | 15° |
| 2026-05-05 19:56 | 50.90136 | 4.49712 | 126 ft | 16 kts | 358° |
| 2026-05-05 19:56 | 50.90251 | 4.49697 | 126 ft | 18 kts | 347° |
| 2026-05-05 19:57 | 50.90334 | 4.49658 | 125 ft | 0 kts | 342° |
| 2026-05-05 19:59 | 50.90365 | 4.49642 | 123 ft | 14 kts | 341° |
| 2026-05-05 20:00 | 50.90447 | 4.49551 | 123 ft | 11 kts | 305° |
| 2026-05-05 20:00 | 50.90438 | 4.49444 | 119 ft | 10 kts | 246° |
| 2026-05-05 20:00 | 50.90414 | 4.49347 | 123 ft | 9 kts | 262° |
| 2026-05-05 20:00 | 50.90450 | 4.49272 | 121 ft | 10 kts | 340° |
| 2026-05-05 20:01 | 50.90519 | 4.49227 | 119 ft | 11 kts | 334° |
| 2026-05-05 20:01 | 50.90599 | 4.49168 | 122 ft | 11 kts | 338° |
| 2026-05-05 20:01 | 50.90637 | 4.49134 | 119 ft | 7 kts | 314° |
| 2026-05-05 20:01 | 50.90645 | 4.49063 | 120 ft | 7 kts | 255° |
| 2026-05-05 20:02 | 50.90625 | 4.48996 | 119 ft | 7 kts | 242° |
| 2026-05-05 20:02 | 50.90605 | 4.48935 | 117 ft | 6 kts | 243° |
| 2026-05-05 20:02 | 50.90588 | 4.48879 | 119 ft | 5 kts | 244° |
| 2026-05-05 20:02 | 50.90572 | 4.48826 | 116 ft | 5 kts | 245° |
| 2026-05-05 20:03 | 50.90558 | 4.48778 | 120 ft | 5 kts | 245° |
| 2026-05-05 20:03 | 50.90539 | 4.48711 | 117 ft | 12 kts | 245° |
| 2026-05-05 20:03 | 50.90505 | 4.48592 | 117 ft | 11 kts | 245° |
| 2026-05-05 20:03 | 50.90488 | 4.48532 | 118 ft | 0 kts | 245° |
| 2026-05-05 20:04 | 50.90481 | 4.48511 | 121 ft | 0 kts | 245° |
| 2026-05-05 20:04 | 50.90470 | 4.48492 | 116 ft | 5 kts | 216° |
| 2026-05-05 20:04 | 50.90444 | 4.48495 | 120 ft | 1 kts | 154° |
| 2026-05-05 20:04 | 50.90424 | 4.48515 | 118 ft | 2 kts | 152° |
| 2026-05-05 20:05 | 50.90411 | 4.48524 | 120 ft | 2 kts | 155° |
| 2026-05-05 20:05 | 50.90401 | 4.48532 | 118 ft | 1 kts | 155° |
| 2026-05-05 20:05 | 50.90397 | 4.48535 | 119 ft | 0 kts | 155° |
| 2026-05-05 20:05 | 50.90394 | 4.48537 | 117 ft | 0 kts | 155° |
| 2026-05-05 20:06 | 50.90392 | 4.48538 | 118 ft | 0 kts | 155° |
| 2026-05-05 20:06 | 50.90388 | 4.48541 | 118 ft | 0 kts | 155° |